Ross County (RZT)

 

Airport Diagram
No Airport Diagram Available
Current Weather/Forecast (LIFR Conditions)
METAR KRZT 191455Z AUTO 16006KT 2 1/2SM OVC002 11/11 A3017 RMK AO2 P0007 PWINO
TAF

Airport Information

All Charts
General
Chart Name View
TAKEOFF MINIMUMS
ALTERNATE MINIMUMS
TAKEOFF MINIMUMS
ALTERNATE MINIMUMS

Approaches
Chart Name Download
RNAV (GPS) RWY 23
VOR RWY 23
RNAV (GPS) RWY 23
VOR RWY 23


Airport Statistics
Departures Arrivals Local
All Collected Stats since June 2016: 2 8 0
2020 Stats: 1 5 0
October Stats: 0 0 0

Inbound Traffic (Arrivals) - 0

No inbound traffic.


Outbound Traffic (Departures) - 0

No outbound traffic.


Local Traffic (Pattern) - 0

No local traffic.